createdAt,value
2023-03-22T00:00:12.730Z,8.81
2023-03-22T00:03:16.082Z,8.62
2023-03-22T00:06:21.183Z,8.78
2023-03-22T00:09:24.305Z,8.79
2023-03-22T00:12:27.496Z,8.91
2023-03-22T00:15:30.659Z,8.57
2023-03-22T00:18:33.984Z,8.55
2023-03-22T00:21:38.491Z,8.60
2023-03-22T00:24:41.558Z,8.60
2023-03-22T00:27:45.036Z,8.53
2023-03-22T00:30:55.903Z,8.56
2023-03-22T00:33:58.925Z,8.43
2023-03-22T00:37:03.335Z,8.26
2023-03-22T00:40:08.858Z,8.40
2023-03-22T00:43:12.074Z,8.27
2023-03-22T00:46:16.538Z,8.03
2023-03-22T00:49:19.894Z,7.98
2023-03-22T00:52:24.694Z,7.87
2023-03-22T00:55:28.008Z,7.87
2023-03-22T00:58:31.215Z,7.66
2023-03-22T01:01:34.701Z,7.66
2023-03-22T01:04:40.100Z,7.64
2023-03-22T01:07:44.899Z,7.70
2023-03-22T01:10:49.394Z,7.65
2023-03-22T01:13:52.978Z,7.58
2023-03-22T01:16:57.499Z,7.45
2023-03-22T01:20:01.002Z,7.39
2023-03-22T01:23:06.479Z,7.52
2023-03-22T01:26:09.838Z,7.31
2023-03-22T01:29:13.340Z,7.41
2023-03-22T01:32:16.627Z,7.04
2023-03-22T01:35:20.139Z,7.20
2023-03-22T01:38:24.729Z,6.82
2023-03-22T01:41:34.921Z,6.98
2023-03-22T01:44:46.909Z,6.63
2023-03-22T01:47:55.574Z,6.57
2023-03-22T01:51:07.148Z,6.64
2023-03-22T01:54:22.219Z,6.96
2023-03-22T01:57:27.516Z,6.93
2023-03-22T02:00:32.644Z,6.71
2023-03-22T02:04:09.124Z,6.64
2023-03-22T02:07:25.863Z,6.98
2023-03-22T02:10:31.580Z,6.88
2023-03-22T02:13:47.955Z,7.13
2023-03-22T02:17:27.602Z,6.66
2023-03-22T02:21:04.521Z,7.08
2023-03-22T02:24:39.370Z,6.88
2023-03-22T02:28:10.996Z,6.83
2023-03-22T02:31:31.456Z,6.94
2023-03-22T02:34:52.225Z,6.90
2023-03-22T02:38:33.030Z,7.28
2023-03-22T02:41:46.591Z,7.17
2023-03-22T02:45:00.032Z,7.34
2023-03-22T02:48:09.877Z,7.21
2023-03-22T02:51:18.945Z,6.84
2023-03-22T02:54:28.719Z,7.09
2023-03-22T02:57:37.957Z,6.85
2023-03-22T03:00:42.691Z,6.54
2023-03-22T03:03:50.331Z,6.46
2023-03-22T03:06:56.654Z,6.06
2023-03-22T03:09:59.855Z,6.58
2023-03-22T03:13:04.671Z,6.57
2023-03-22T03:16:09.101Z,6.43
2023-03-22T03:19:19.809Z,6.53
2023-03-22T03:22:38.211Z,6.28
2023-03-22T03:25:48.849Z,6.11
2023-03-22T03:28:58.088Z,5.99
2023-03-22T03:32:08.196Z,6.00
2023-03-22T03:35:23.007Z,6.04
2023-03-22T03:38:29.528Z,6.11
2023-03-22T03:41:33.507Z,5.98
2023-03-22T03:44:39.905Z,5.96
2023-03-22T03:47:44.357Z,6.10
2023-03-22T03:50:50.376Z,5.78
2023-03-22T03:53:53.872Z,5.69
2023-03-22T03:56:58.500Z,5.77
2023-03-22T04:00:04.012Z,5.76
2023-03-22T04:03:25.747Z,5.76
2023-03-22T04:06:47.827Z,6.01
2023-03-22T04:09:56.060Z,5.11
2023-03-22T04:13:03.464Z,6.20
2023-03-22T04:16:09.970Z,5.55
2023-03-22T04:19:14.448Z,5.46
2023-03-22T04:22:18.486Z,5.38
2023-03-22T04:25:22.793Z,5.86
2023-03-22T04:28:34.805Z,5.45
2023-03-22T04:34:14.054Z,5.31
2023-03-22T04:37:27.115Z,5.32
2023-03-22T04:40:47.620Z,5.42
2023-03-22T04:43:57.551Z,5.46
2023-03-22T04:47:00.893Z,5.77
2023-03-22T04:50:06.555Z,5.46
2023-03-22T04:53:14.242Z,5.58
2023-03-22T04:56:20.255Z,5.27
2023-03-22T04:59:26.572Z,5.36
2023-03-22T05:02:29.902Z,5.18
2023-03-22T05:05:34.665Z,5.25
2023-03-22T05:08:39.386Z,5.06
2023-03-22T05:11:43.127Z,5.17
2023-03-22T05:15:06.601Z,5.24
2023-03-22T05:18:14.349Z,5.14
2023-03-22T05:21:22.553Z,5.20
2023-03-22T05:24:31.105Z,5.24
2023-03-22T05:27:35.062Z,5.38
2023-03-22T05:31:11.800Z,5.31
2023-03-22T05:34:21.908Z,5.33
2023-03-22T05:37:27.052Z,5.23
2023-03-22T05:40:33.097Z,5.39
2023-03-22T05:43:36.509Z,5.39
2023-03-22T05:46:40.204Z,5.27
2023-03-22T05:50:02.406Z,5.36
2023-03-22T05:53:08.423Z,5.50
2023-03-22T05:56:30.145Z,5.61
2023-03-22T05:59:41.144Z,5.50
2023-03-22T06:02:49.678Z,5.46
2023-03-22T06:05:54.681Z,5.52
2023-03-22T06:09:16.841Z,5.47
2023-03-22T06:12:24.739Z,5.65
2023-03-22T06:15:37.684Z,5.61
2023-03-22T06:18:43.052Z,5.83
2023-03-22T06:21:49.310Z,6.04
2023-03-22T06:24:55.320Z,6.21
2023-03-22T06:28:08.842Z,6.28
2023-03-22T06:31:14.053Z,6.43
2023-03-22T06:34:37.554Z,6.63
2023-03-22T06:37:44.138Z,6.80
2023-03-22T06:40:48.897Z,6.96
2023-03-22T06:43:52.146Z,7.11
2023-03-22T06:47:16.511Z,7.25
2023-03-22T06:50:48.149Z,7.59
2023-03-22T06:53:55.821Z,7.65
2023-03-22T06:57:00.697Z,7.87
2023-03-22T07:00:05.299Z,8.06
2023-03-22T07:03:08.638Z,8.20
2023-03-22T07:06:18.229Z,8.46
2023-03-22T07:09:26.790Z,8.64
2023-03-22T07:12:35.028Z,8.78
2023-03-22T07:15:44.308Z,9.04
2023-03-22T07:19:09.930Z,9.16
2023-03-22T07:22:13.769Z,9.14
2023-03-22T07:25:18.728Z,9.23
2023-03-22T07:28:25.971Z,9.75
2023-03-22T07:31:31.475Z,10.05
2023-03-22T07:34:43.349Z,10.26
2023-03-22T07:37:53.065Z,10.19
2023-03-22T07:41:02.937Z,10.61
2023-03-22T07:44:24.207Z,11.21
2023-03-22T07:47:48.512Z,10.92
2023-03-22T07:50:57.168Z,11.30
2023-03-22T07:54:02.358Z,11.82
2023-03-22T07:57:06.887Z,11.37
2023-03-22T08:00:17.178Z,11.79
2023-03-22T08:03:26.236Z,11.87
2023-03-22T08:06:36.916Z,12.48
2023-03-22T08:09:40.847Z,12.32
2023-03-22T08:12:44.293Z,12.53
2023-03-22T08:15:58.768Z,12.85
2023-03-22T08:19:02.820Z,12.65
2023-03-22T08:22:08.052Z,13.39
2023-03-22T08:25:33.459Z,13.00
2023-03-22T08:28:43.917Z,13.05
2023-03-22T08:31:48.578Z,13.40
2023-03-22T08:34:52.637Z,13.15
2023-03-22T08:37:56.314Z,13.82
2023-03-22T08:41:04.291Z,13.37
2023-03-22T08:44:07.506Z,13.93
2023-03-22T08:47:13.389Z,13.72
2023-03-22T08:50:18.730Z,13.83
2023-03-22T08:53:28.658Z,13.64
2023-03-22T08:56:48.180Z,13.75
2023-03-22T09:00:12.014Z,13.55
2023-03-22T09:03:25.962Z,13.90
2023-03-22T09:06:29.769Z,13.52
2023-03-22T09:09:32.994Z,13.95
2023-03-22T09:12:36.295Z,13.72
2023-03-22T09:15:39.916Z,13.76
2023-03-22T09:18:59.535Z,14.06
2023-03-22T09:22:02.903Z,14.11
2023-03-22T09:25:15.475Z,14.19
2023-03-22T09:28:21.875Z,14.28
2023-03-22T09:31:25.240Z,14.11
2023-03-22T09:34:42.457Z,14.06
2023-03-22T09:37:45.674Z,14.47
2023-03-22T09:41:00.353Z,14.21
2023-03-22T09:44:10.284Z,14.45
2023-03-22T09:47:17.975Z,14.77
2023-03-22T09:50:24.440Z,14.32
2023-03-22T09:53:30.735Z,14.56
2023-03-22T09:56:34.191Z,14.31
2023-03-22T09:59:45.436Z,14.43
2023-03-22T10:02:56.131Z,13.96
2023-03-22T10:06:05.156Z,13.69
2023-03-22T10:09:13.914Z,13.99
2023-03-22T10:12:22.037Z,14.02
2023-03-22T10:15:29.944Z,14.28
2023-03-22T10:18:36.851Z,14.47
2023-03-22T10:21:42.271Z,14.71
2023-03-22T10:24:49.229Z,14.67
2023-03-22T10:27:53.399Z,14.89
2023-03-22T10:34:21.797Z,15.09
2023-03-22T10:37:32.025Z,14.58
2023-03-22T10:40:37.577Z,14.75
2023-03-22T10:43:42.976Z,14.97
2023-03-22T10:46:47.524Z,15.32
2023-03-22T10:49:57.097Z,15.21
2023-03-22T10:53:05.621Z,15.48
2023-03-22T10:56:13.625Z,16.07
2023-03-22T10:59:44.799Z,15.31
2023-03-22T11:02:54.059Z,15.15
2023-03-22T11:06:03.663Z,14.99
2023-03-22T11:09:13.733Z,15.35
2023-03-22T11:12:17.205Z,15.10
2023-03-22T11:15:24.775Z,15.38
2023-03-22T11:18:32.491Z,15.30
2023-03-22T11:21:37.117Z,15.25
2023-03-22T11:24:40.593Z,15.68
2023-03-22T11:27:53.024Z,15.68
2023-03-22T11:31:02.434Z,15.33
2023-03-22T11:34:17.822Z,15.37
2023-03-22T11:37:23.217Z,15.70
2023-03-22T11:40:29.335Z,15.55
2023-03-22T11:43:38.103Z,15.31
2023-03-22T11:46:50.391Z,15.72
2023-03-22T11:49:56.375Z,15.87
2023-03-22T11:53:03.537Z,16.23
2023-03-22T11:56:08.568Z,16.37
2023-03-22T11:59:16.559Z,16.65
2023-03-22T12:02:24.719Z,16.22
2023-03-22T12:05:31.299Z,16.27
2023-03-22T12:08:43.981Z,16.03
2023-03-22T12:11:50.672Z,15.92
2023-03-22T12:14:58.444Z,15.98
2023-03-22T12:18:07.990Z,16.18
2023-03-22T12:21:12.014Z,15.89
2023-03-22T12:24:26.377Z,16.28
2023-03-22T12:30:43.897Z,15.99
2023-03-22T12:33:50.337Z,16.26
2023-03-22T12:36:57.027Z,16.15
2023-03-22T12:40:06.753Z,16.89
2023-03-22T12:43:14.701Z,16.46
2023-03-22T12:46:23.750Z,16.13
2023-03-22T12:49:33.127Z,16.22
2023-03-22T12:52:45.861Z,16.57
2023-03-22T12:55:52.192Z,16.53
2023-03-22T12:59:00.245Z,16.28
2023-03-22T13:02:15.431Z,16.16
2023-03-22T13:05:19.458Z,15.92
2023-03-22T13:08:23.660Z,15.98
2023-03-22T13:11:28.454Z,16.27
2023-03-22T13:14:57.685Z,16.32
2023-03-22T13:18:04.550Z,16.45
2023-03-22T13:21:13.102Z,16.17
2023-03-22T13:24:24.018Z,16.64
2023-03-22T13:27:37.859Z,16.32
2023-03-22T13:30:50.364Z,16.65
2023-03-22T13:33:54.818Z,16.61
2023-03-22T13:36:58.896Z,16.52
2023-03-22T13:40:04.007Z,16.27
2023-03-22T13:43:22.043Z,15.84
2023-03-22T13:46:46.433Z,16.10
2023-03-22T13:49:54.550Z,16.11
2023-03-22T13:53:03.803Z,16.55
2023-03-22T13:56:08.350Z,16.53
2023-03-22T13:59:15.328Z,16.92
2023-03-22T14:02:23.116Z,17.21
2023-03-22T14:05:30.235Z,16.62
2023-03-22T14:08:35.628Z,16.59
2023-03-22T14:11:46.240Z,17.11
2023-03-22T14:14:56.211Z,16.98
2023-03-22T14:18:03.434Z,17.13
2023-03-22T14:21:10.383Z,17.30
